createdAt,value
2018-09-26T00:01:10.957Z,99.90
2018-09-26T00:03:42.934Z,99.90
2018-09-26T00:06:10.617Z,99.90
2018-09-26T00:08:38.372Z,99.90
2018-09-26T00:11:06.271Z,99.90
2018-09-26T00:13:33.949Z,99.90
2018-09-26T00:16:01.764Z,99.90
2018-09-26T00:18:29.446Z,99.90
2018-09-26T00:20:57.137Z,99.90
2018-09-26T00:23:24.968Z,99.90
2018-09-26T00:25:52.619Z,99.90
2018-09-26T00:28:20.315Z,99.90
2018-09-26T00:30:48.023Z,99.90
2018-09-26T00:33:15.758Z,99.90
2018-09-26T00:35:43.542Z,99.90
2018-09-26T00:38:11.149Z,99.90
2018-09-26T00:40:38.899Z,99.90
2018-09-26T00:43:06.570Z,99.90
2018-09-26T00:45:34.278Z,99.90
2018-09-26T00:48:01.967Z,99.90
2018-09-26T00:50:29.768Z,99.90
2018-09-26T00:52:57.505Z,99.90
2018-09-26T00:55:25.208Z,99.90
2018-09-26T00:57:52.901Z,99.90
2018-09-26T01:00:20.589Z,99.90
2018-09-26T01:02:48.478Z,99.90
2018-09-26T01:05:16.138Z,99.90
2018-09-26T01:07:43.828Z,99.90
2018-09-26T01:10:11.620Z,99.90
2018-09-26T01:12:39.331Z,99.90
2018-09-26T01:15:07.033Z,99.90
2018-09-26T01:17:34.718Z,99.90
2018-09-26T01:20:02.498Z,99.90
2018-09-26T01:22:30.182Z,99.90
2018-09-26T01:24:57.892Z,99.90
2018-09-26T01:27:25.573Z,99.90
2018-09-26T01:29:53.305Z,99.90
2018-09-26T01:32:20.989Z,99.90
2018-09-26T01:34:48.641Z,99.90
2018-09-26T01:37:16.368Z,99.90
2018-09-26T01:39:44.069Z,99.90
2018-09-26T01:42:11.823Z,99.90
2018-09-26T01:44:39.492Z,99.90
2018-09-26T01:47:07.170Z,99.90
2018-09-26T01:49:34.856Z,99.90
2018-09-26T01:52:02.553Z,99.90
2018-09-26T01:54:30.261Z,99.90
2018-09-26T01:56:57.922Z,99.90
2018-09-26T01:59:25.687Z,99.90
2018-09-26T02:01:53.456Z,99.90
2018-09-26T02:04:21.218Z,99.90
2018-09-26T02:06:48.973Z,99.90
2018-09-26T02:09:16.660Z,99.90
2018-09-26T02:11:44.351Z,99.90
2018-09-26T02:14:12.082Z,99.90
2018-09-26T02:16:39.802Z,99.90
2018-09-26T02:19:07.476Z,99.90
2018-09-26T02:21:36.115Z,99.90
2018-09-26T02:24:03.790Z,99.90
2018-09-26T02:26:31.494Z,99.90
2018-09-26T02:28:59.185Z,99.90
2018-09-26T02:31:26.852Z,99.90
2018-09-26T02:33:54.544Z,99.90
2018-09-26T02:36:22.410Z,99.90
2018-09-26T02:38:50.197Z,99.90
2018-09-26T02:41:17.894Z,99.90
2018-09-26T02:43:45.619Z,99.90
2018-09-26T02:46:13.386Z,99.90
2018-09-26T02:48:46.541Z,99.90
2018-09-26T02:51:14.202Z,99.90
2018-09-26T02:53:41.891Z,99.90
2018-09-26T02:56:09.536Z,99.90
2018-09-26T02:58:37.218Z,99.90
2018-09-26T03:01:04.992Z,99.90
2018-09-26T03:03:32.695Z,99.90
2018-09-26T03:06:00.356Z,99.90
2018-09-26T03:08:28.059Z,99.90
2018-09-26T03:10:55.779Z,99.90
2018-09-26T03:13:23.401Z,99.90
2018-09-26T03:15:51.235Z,99.90
2018-09-26T03:18:18.917Z,99.90
2018-09-26T03:20:46.615Z,99.90
2018-09-26T03:23:14.311Z,99.90
2018-09-26T03:25:41.980Z,99.90
2018-09-26T03:28:09.738Z,99.90
2018-09-26T03:30:37.614Z,99.90
2018-09-26T03:33:05.477Z,99.90
2018-09-26T03:35:33.149Z,99.90
2018-09-26T03:38:00.861Z,99.90
2018-09-26T03:40:28.533Z,99.90
2018-09-26T03:42:56.267Z,99.90
2018-09-26T03:45:23.988Z,99.90
2018-09-26T03:47:51.777Z,99.90
2018-09-26T03:50:19.655Z,99.90
2018-09-26T03:52:47.324Z,99.90
2018-09-26T03:55:15.005Z,99.90
2018-09-26T03:57:42.933Z,99.90
2018-09-26T04:00:10.620Z,99.90
2018-09-26T04:02:38.288Z,99.90
2018-09-26T04:05:06.046Z,99.90
2018-09-26T04:10:08.063Z,99.90
2018-09-26T04:12:35.827Z,99.90
2018-09-26T04:15:03.608Z,99.90
2018-09-26T04:17:31.328Z,99.90
2018-09-26T04:19:59.007Z,99.90
2018-09-26T04:22:26.742Z,99.90
2018-09-26T04:24:54.416Z,99.90
2018-09-26T04:27:22.180Z,99.90
2018-09-26T04:29:49.833Z,99.90
2018-09-26T04:32:17.502Z,99.90
2018-09-26T04:34:45.163Z,99.90
2018-09-26T04:37:12.837Z,99.90
2018-09-26T04:39:40.564Z,99.90
2018-09-26T04:42:08.277Z,99.90
2018-09-26T04:44:35.949Z,99.90
2018-09-26T04:47:07.757Z,99.90
2018-09-26T04:49:35.417Z,99.90
2018-09-26T04:52:03.082Z,99.90
2018-09-26T04:54:30.775Z,99.90
2018-09-26T04:56:58.495Z,99.90
2018-09-26T04:59:32.754Z,99.90
2018-09-26T05:02:01.002Z,99.90
2018-09-26T05:04:28.649Z,99.90
2018-09-26T05:06:56.352Z,99.90
2018-09-26T05:09:24.030Z,99.90
2018-09-26T05:11:51.737Z,99.90
2018-09-26T05:14:19.384Z,99.90
2018-09-26T05:16:47.064Z,99.90
2018-09-26T05:19:14.794Z,99.90
2018-09-26T05:21:42.469Z,99.90
2018-09-26T05:24:10.141Z,99.90
2018-09-26T05:26:37.844Z,99.90
2018-09-26T05:29:05.542Z,99.90
2018-09-26T05:31:33.249Z,99.90
2018-09-26T05:34:00.985Z,99.90
2018-09-26T05:36:28.656Z,99.90
2018-09-26T05:38:56.330Z,99.90
2018-09-26T05:41:24.004Z,99.90
2018-09-26T05:43:51.700Z,99.90
2018-09-26T05:46:19.398Z,99.90
2018-09-26T05:48:47.052Z,99.90
2018-09-26T05:51:14.751Z,99.90
2018-09-26T05:53:42.430Z,99.90
2018-09-26T05:56:10.125Z,99.90
2018-09-26T05:58:37.855Z,99.90
2018-09-26T06:01:05.593Z,99.90
2018-09-26T06:03:33.273Z,99.90
2018-09-26T06:06:00.953Z,99.90
2018-09-26T06:08:28.625Z,99.90
2018-09-26T06:10:56.311Z,99.90
2018-09-26T06:13:23.973Z,99.90
2018-09-26T06:15:51.653Z,99.90
2018-09-26T06:18:19.315Z,99.90
2018-09-26T06:20:46.998Z,99.90
2018-09-26T06:23:14.693Z,99.90
2018-09-26T06:25:42.392Z,99.90
2018-09-26T06:28:10.052Z,99.90
2018-09-26T06:30:37.714Z,99.90
2018-09-26T06:33:05.417Z,99.90
2018-09-26T06:35:33.133Z,99.90
2018-09-26T06:38:00.825Z,99.90
2018-09-26T06:40:28.519Z,99.90
2018-09-26T06:42:56.297Z,99.70
2018-09-26T06:45:23.965Z,99.00
2018-09-26T06:47:51.673Z,98.20
2018-09-26T06:50:19.336Z,97.70
2018-09-26T06:52:47.009Z,97.60
2018-09-26T06:55:14.661Z,97.00
2018-09-26T06:57:42.338Z,97.10
2018-09-26T07:00:10.050Z,97.40
2018-09-26T07:02:37.745Z,97.50
2018-09-26T07:05:05.467Z,97.20
2018-09-26T07:07:33.253Z,96.90
2018-09-26T07:10:01.105Z,96.80
2018-09-26T07:12:28.887Z,96.90
2018-09-26T07:14:56.614Z,97.20
2018-09-26T07:17:24.350Z,97.40
2018-09-26T07:19:52.020Z,97.40
2018-09-26T07:22:19.731Z,97.80
2018-09-26T07:24:47.471Z,97.60
2018-09-26T07:27:15.162Z,97.20
2018-09-26T07:29:42.869Z,96.80
2018-09-26T07:32:10.562Z,96.10
2018-09-26T07:34:39.337Z,96.00
2018-09-26T07:37:07.704Z,95.70
2018-09-26T07:39:36.237Z,95.20
2018-09-26T07:42:03.989Z,94.90
2018-09-26T07:44:31.690Z,94.20
2018-09-26T07:46:59.354Z,94.10
2018-09-26T07:49:27.270Z,93.50
2018-09-26T07:51:54.957Z,92.30
2018-09-26T07:54:22.657Z,91.60
2018-09-26T07:56:50.369Z,91.10
2018-09-26T07:59:18.063Z,90.10
2018-09-26T08:01:45.962Z,89.10
2018-09-26T08:04:13.643Z,86.80
2018-09-26T08:06:41.335Z,86.60
2018-09-26T08:09:09.862Z,86.00
2018-09-26T08:11:37.597Z,86.70
2018-09-26T08:14:05.481Z,85.80
2018-09-26T08:16:33.204Z,83.40
2018-09-26T08:19:01.030Z,83.70
2018-09-26T08:21:28.761Z,84.20
2018-09-26T08:23:56.506Z,84.90
2018-09-26T08:26:24.137Z,84.80
2018-09-26T08:28:51.824Z,84.90
2018-09-26T08:31:19.498Z,83.90
2018-09-26T08:33:47.920Z,80.80
2018-09-26T08:36:15.579Z,77.40
2018-09-26T08:38:43.280Z,73.90
2018-09-26T08:41:10.952Z,74.60
2018-09-26T08:43:38.646Z,74.10
2018-09-26T08:46:06.384Z,75.50
2018-09-26T08:48:34.244Z,76.90
2018-09-26T08:51:02.008Z,75.50
2018-09-26T08:53:29.676Z,74.60
2018-09-26T08:55:57.361Z,78.20
2018-09-26T08:58:25.081Z,77.80
2018-09-26T09:00:54.009Z,77.80
2018-09-26T09:03:21.765Z,78.70
2018-09-26T09:05:50.130Z,77.30
2018-09-26T09:08:18.522Z,77.50
2018-09-26T09:10:46.217Z,79.10
2018-09-26T09:13:13.940Z,77.40
2018-09-26T09:15:41.640Z,76.00
2018-09-26T09:18:09.462Z,78.40
2018-09-26T09:20:37.153Z,77.80
2018-09-26T09:23:04.821Z,76.40
2018-09-26T09:25:32.527Z,76.30
2018-09-26T09:28:00.190Z,74.20
2018-09-26T09:30:27.981Z,77.10
2018-09-26T09:32:55.665Z,77.80
2018-09-26T09:35:23.384Z,75.70
2018-09-26T09:37:51.357Z,70.60
2018-09-26T09:40:19.055Z,70.20
2018-09-26T09:42:46.735Z,68.70
2018-09-26T09:45:14.561Z,70.20
2018-09-26T09:47:42.238Z,67.80
2018-09-26T09:50:09.957Z,66.90
2018-09-26T09:52:37.666Z,63.50
2018-09-26T09:55:05.386Z,61.60
2018-09-26T09:57:33.055Z,61.60
2018-09-26T10:00:00.737Z,62.00
2018-09-26T10:02:28.522Z,60.10
2018-09-26T10:04:56.135Z,57.70
2018-09-26T10:08:32.896Z,54.70
2018-09-26T10:11:00.600Z,53.10
2018-09-26T10:13:28.981Z,50.70
2018-09-26T10:15:56.669Z,52.40
2018-09-26T10:18:24.344Z,45.20
2018-09-26T10:20:52.065Z,44.20
2018-09-26T10:23:19.756Z,44.40
2018-09-26T10:25:47.453Z,45.20
2018-09-26T10:28:15.139Z,44.40
2018-09-26T10:30:42.833Z,42.30
2018-09-26T10:33:10.522Z,42.50
2018-09-26T10:35:38.193Z,42.10
2018-09-26T10:38:05.935Z,42.30
2018-09-26T10:40:33.593Z,43.90
2018-09-26T10:43:01.299Z,44.50
2018-09-26T10:45:28.995Z,44.60
2018-09-26T10:47:56.685Z,43.90
2018-09-26T10:50:24.440Z,44.40
2018-09-26T10:52:52.142Z,44.80
2018-09-26T10:55:19.821Z,46.10
2018-09-26T10:57:47.517Z,47.60
2018-09-26T11:00:15.224Z,45.80
2018-09-26T11:02:42.973Z,45.40
2018-09-26T11:05:10.634Z,44.70
2018-09-26T11:07:38.342Z,44.10
2018-09-26T11:10:06.100Z,45.10
2018-09-26T11:12:33.785Z,43.30
2018-09-26T11:15:01.614Z,43.00
2018-09-26T11:17:29.322Z,41.70
2018-09-26T11:19:57.049Z,39.30
2018-09-26T11:22:24.839Z,40.60
2018-09-26T11:24:52.450Z,39.50
2018-09-26T11:27:20.135Z,40.00
2018-09-26T11:29:47.830Z,39.70
2018-09-26T11:32:15.543Z,39.30
2018-09-26T11:34:43.212Z,40.50
2018-09-26T11:37:11.002Z,39.00
2018-09-26T11:39:38.733Z,39.70
2018-09-26T11:42:06.712Z,39.90
2018-09-26T11:44:35.124Z,39.00
2018-09-26T11:47:02.836Z,39.10
2018-09-26T11:49:30.525Z,38.10
2018-09-26T11:51:58.729Z,38.60
2018-09-26T11:54:26.445Z,37.30
2018-09-26T11:56:54.187Z,36.60
2018-09-26T11:59:21.965Z,37.50
2018-09-26T12:01:49.685Z,36.70
2018-09-26T12:04:17.451Z,37.40
2018-09-26T12:06:45.077Z,36.70
2018-09-26T12:09:12.774Z,36.90
2018-09-26T12:11:40.449Z,37.40
2018-09-26T12:14:08.157Z,36.90
2018-09-26T12:16:35.850Z,37.10
2018-09-26T12:19:03.561Z,37.50
2018-09-26T12:21:31.280Z,38.60
2018-09-26T12:23:58.987Z,38.50
2018-09-26T12:26:26.782Z,39.50
2018-09-26T12:28:54.505Z,39.80
2018-09-26T12:31:22.172Z,39.10
2018-09-26T12:33:49.912Z,38.30
2018-09-26T12:36:18.534Z,39.20
2018-09-26T12:38:46.962Z,39.20
2018-09-26T12:41:15.498Z,38.80
2018-09-26T12:43:43.960Z,39.00
2018-09-26T12:46:12.504Z,38.30
2018-09-26T12:48:40.145Z,38.10
2018-09-26T12:51:07.856Z,38.60
2018-09-26T12:53:35.583Z,37.70
2018-09-26T12:56:03.253Z,36.30
2018-09-26T12:58:30.921Z,36.40
2018-09-26T13:00:58.600Z,38.30
2018-09-26T13:03:26.285Z,38.30
2018-09-26T13:05:53.978Z,37.90
2018-09-26T13:08:21.684Z,37.60
2018-09-26T13:10:49.365Z,35.80
2018-09-26T13:13:17.045Z,35.40
2018-09-26T13:15:44.753Z,37.60
2018-09-26T13:18:12.523Z,36.90
2018-09-26T13:20:40.323Z,35.00
2018-09-26T13:23:10.938Z,36.10
2018-09-26T13:25:38.662Z,36.20
2018-09-26T13:28:06.372Z,35.30
2018-09-26T13:30:34.022Z,35.00
2018-09-26T13:33:01.709Z,33.50
2018-09-26T13:35:29.378Z,33.70
2018-09-26T13:37:57.144Z,33.90
2018-09-26T13:40:24.907Z,34.20
2018-09-26T13:42:52.596Z,33.20
2018-09-26T13:45:20.281Z,36.40
2018-09-26T13:47:47.993Z,36.10
2018-09-26T13:50:15.682Z,33.90
2018-09-26T13:52:43.384Z,33.60
2018-09-26T13:55:11.067Z,32.90
2018-09-26T13:57:38.781Z,33.20
2018-09-26T14:00:07.097Z,34.20
2018-09-26T14:02:34.785Z,33.00
2018-09-26T14:05:02.474Z,33.60
2018-09-26T14:07:30.165Z,34.20
2018-09-26T14:09:57.844Z,33.80
2018-09-26T14:12:25.602Z,33.80
2018-09-26T14:14:53.228Z,33.00
2018-09-26T14:17:21.117Z,32.40
2018-09-26T14:19:48.779Z,32.50
2018-09-26T14:22:16.479Z,33.50
2018-09-26T14:24:44.172Z,36.50
2018-09-26T14:27:11.906Z,35.70
2018-09-26T14:29:39.577Z,33.10
2018-09-26T14:32:07.314Z,33.30
2018-09-26T14:34:34.956Z,33.60
2018-09-26T14:37:03.110Z,33.20
2018-09-26T14:39:30.915Z,32.90
2018-09-26T14:41:58.477Z,33.10
2018-09-26T14:44:26.253Z,34.00
2018-09-26T14:46:53.920Z,33.60
2018-09-26T14:49:21.745Z,33.50
2018-09-26T14:51:49.314Z,34.40
2018-09-26T14:54:17.016Z,34.10
2018-09-26T14:56:44.706Z,34.60
2018-09-26T14:59:12.437Z,33.10
2018-09-26T15:01:40.143Z,33.10
2018-09-26T15:04:07.852Z,34.00
2018-09-26T15:06:35.574Z,33.40
2018-09-26T15:09:04.129Z,33.60
2018-09-26T15:11:31.837Z,34.30
2018-09-26T15:13:59.530Z,34.80
2018-09-26T15:16:27.227Z,35.60
2018-09-26T15:18:54.913Z,37.90
2018-09-26T15:21:22.597Z,38.70
2018-09-26T15:23:50.285Z,39.70
2018-09-26T15:26:17.995Z,40.80
2018-09-26T15:28:45.732Z,40.60
2018-09-26T15:31:13.433Z,40.80
2018-09-26T15:33:41.713Z,39.90
2018-09-26T15:36:09.435Z,41.00
2018-09-26T15:38:37.121Z,40.00
2018-09-26T15:41:04.826Z,42.20
2018-09-26T15:43:32.512Z,41.10
2018-09-26T15:46:00.198Z,41.50
2018-09-26T15:48:27.884Z,41.80
2018-09-26T15:50:55.568Z,41.60
2018-09-26T15:53:23.250Z,41.30
2018-09-26T15:55:50.945Z,41.60
2018-09-26T15:58:18.690Z,42.10
2018-09-26T16:00:46.362Z,42.70
2018-09-26T16:03:14.033Z,42.70
2018-09-26T16:05:41.726Z,42.70
2018-09-26T16:08:09.490Z,42.20
2018-09-26T16:10:37.275Z,43.50
2018-09-26T16:13:04.937Z,43.20
2018-09-26T16:15:32.630Z,43.80
2018-09-26T16:18:00.462Z,43.70
2018-09-26T16:20:28.133Z,43.20
2018-09-26T16:22:55.798Z,44.00
2018-09-26T16:25:23.576Z,45.30
2018-09-26T16:27:51.224Z,44.90
2018-09-26T16:30:18.964Z,44.90
2018-09-26T16:32:47.314Z,45.50
2018-09-26T16:35:15.603Z,46.60
2018-09-26T16:37:43.309Z,46.60
2018-09-26T16:40:11.105Z,46.80
2018-09-26T16:42:38.799Z,46.80
2018-09-26T16:45:06.994Z,46.80
2018-09-26T16:47:34.654Z,47.30
2018-09-26T16:50:02.394Z,47.90
2018-09-26T16:52:30.103Z,48.10
2018-09-26T16:54:57.785Z,49.90
2018-09-26T16:57:25.480Z,49.10
2018-09-26T16:59:53.262Z,50.50
2018-09-26T17:02:20.996Z,52.60
2018-09-26T17:04:48.778Z,52.00
2018-09-26T17:07:16.527Z,52.70
2018-09-26T17:09:44.118Z,53.60
2018-09-26T17:12:11.825Z,55.20
2018-09-26T17:14:39.530Z,56.10
2018-09-26T17:17:07.547Z,55.20
2018-09-26T17:19:35.209Z,56.00
2018-09-26T17:22:03.625Z,56.40
2018-09-26T17:24:31.283Z,57.70
2018-09-26T17:26:59.014Z,58.00
2018-09-26T17:29:27.290Z,58.70
2018-09-26T17:31:55.176Z,59.70
2018-09-26T17:34:22.910Z,61.10
2018-09-26T17:36:50.562Z,61.70
2018-09-26T17:39:18.277Z,63.20
2018-09-26T17:41:45.933Z,64.20
2018-09-26T17:44:14.239Z,65.50
2018-09-26T17:46:41.970Z,67.90
2018-09-26T17:49:09.667Z,67.20
2018-09-26T17:51:37.422Z,68.30
2018-09-26T17:54:05.218Z,70.40
2018-09-26T17:56:32.920Z,71.10
2018-09-26T17:59:00.643Z,72.10
2018-09-26T18:01:28.360Z,72.80
2018-09-26T18:03:56.067Z,72.90
2018-09-26T18:06:23.779Z,74.70
2018-09-26T18:08:51.493Z,75.60
2018-09-26T18:11:19.184Z,76.60
2018-09-26T18:13:47.011Z,77.70
2018-09-26T18:16:14.757Z,77.60
2018-09-26T18:18:42.428Z,77.80
2018-09-26T18:21:10.092Z,79.20
2018-09-26T18:23:37.796Z,80.20
2018-09-26T18:26:05.474Z,81.00
2018-09-26T18:28:33.168Z,81.80
2018-09-26T18:31:00.907Z,82.70
2018-09-26T18:33:28.650Z,84.10
2018-09-26T18:35:56.562Z,84.80
2018-09-26T18:38:24.953Z,85.20
2018-09-26T18:40:53.980Z,86.60
2018-09-26T18:43:21.788Z,87.50
2018-09-26T18:45:49.808Z,88.00
2018-09-26T18:48:17.547Z,88.30
2018-09-26T18:50:45.233Z,88.90
2018-09-26T18:53:13.035Z,88.50
2018-09-26T18:55:40.773Z,89.20
2018-09-26T18:58:09.935Z,89.20
2018-09-26T19:00:37.878Z,89.60
2018-09-26T19:03:09.048Z,90.20
2018-09-26T19:05:37.315Z,90.60
2018-09-26T19:08:05.314Z,91.10
2018-09-26T19:10:33.164Z,91.20
2018-09-26T19:13:01.051Z,91.30
2018-09-26T19:15:28.835Z,92.00
2018-09-26T19:17:56.817Z,91.90
2018-09-26T19:20:24.647Z,91.80
2018-09-26T19:22:52.410Z,91.80
2018-09-26T19:25:20.360Z,92.40
2018-09-26T19:27:48.084Z,92.40
2018-09-26T19:30:15.837Z,92.50
2018-09-26T19:32:43.683Z,92.40
2018-09-26T19:35:11.459Z,92.70
2018-09-26T19:37:39.446Z,92.70
2018-09-26T19:40:07.194Z,92.50
2018-09-26T19:42:34.911Z,92.10
2018-09-26T19:45:02.667Z,91.80
2018-09-26T19:47:30.588Z,91.50
2018-09-26T19:49:58.527Z,91.30
2018-09-26T19:52:26.408Z,91.10
2018-09-26T19:54:54.112Z,91.20
2018-09-26T19:57:21.950Z,91.20
2018-09-26T19:59:49.713Z,90.90
2018-09-26T20:02:17.427Z,90.80
2018-09-26T20:04:45.138Z,90.90
2018-09-26T20:07:12.861Z,91.10
2018-09-26T20:09:40.571Z,91.40
2018-09-26T20:12:08.735Z,91.60
2018-09-26T20:14:36.405Z,91.90
2018-09-26T20:17:04.218Z,91.90
2018-09-26T20:19:32.041Z,92.10
2018-09-26T20:21:59.807Z,92.00
2018-09-26T20:24:27.472Z,92.30
2018-09-26T20:26:55.296Z,92.40
2018-09-26T20:29:23.273Z,92.00
2018-09-26T20:31:50.995Z,91.80
2018-09-26T20:34:18.748Z,91.90
2018-09-26T20:36:46.573Z,92.10
2018-09-26T20:39:14.303Z,92.70
2018-09-26T20:41:42.084Z,92.60
2018-09-26T20:44:09.762Z,92.80
2018-09-26T20:46:38.107Z,92.90
2018-09-26T20:49:05.937Z,93.10
2018-09-26T20:51:33.769Z,93.30
2018-09-26T20:54:01.541Z,93.40
2018-09-26T20:56:29.392Z,93.20
2018-09-26T20:58:57.133Z,93.30
2018-09-26T21:01:24.887Z,93.40
2018-09-26T21:03:52.627Z,93.60
2018-09-26T21:06:20.455Z,93.80
2018-09-26T21:08:48.220Z,93.90
2018-09-26T21:11:16.008Z,93.80
2018-09-26T21:13:46.484Z,93.60
2018-09-26T21:16:14.307Z,93.70
2018-09-26T21:18:42.053Z,93.50
2018-09-26T21:21:09.784Z,93.50
2018-09-26T21:23:37.568Z,93.90
2018-09-26T21:26:05.246Z,94.00
2018-09-26T21:28:32.943Z,94.30
2018-09-26T21:31:00.601Z,94.60
2018-09-26T21:33:28.297Z,94.10
2018-09-26T21:35:55.970Z,93.80
2018-09-26T21:38:23.721Z,93.90
2018-09-26T21:40:51.424Z,93.60
2018-09-26T21:43:19.189Z,93.40
2018-09-26T21:45:46.876Z,93.50
2018-09-26T21:48:14.634Z,93.20
2018-09-26T21:50:43.093Z,93.30
2018-09-26T21:53:10.789Z,93.20
2018-09-26T21:55:38.501Z,93.20
2018-09-26T21:58:06.204Z,93.10
2018-09-26T22:00:33.861Z,92.90
2018-09-26T22:03:02.135Z,92.70
2018-09-26T22:05:29.813Z,92.60
2018-09-26T22:07:57.573Z,92.40
2018-09-26T22:10:25.273Z,92.30
2018-09-26T22:12:53.024Z,92.10
2018-09-26T22:15:23.770Z,91.80
2018-09-26T22:17:52.261Z,91.90
2018-09-26T22:20:20.229Z,91.80
2018-09-26T22:22:48.620Z,92.00
2018-09-26T22:25:16.674Z,92.10
2018-09-26T22:27:44.640Z,92.50
2018-09-26T22:30:12.349Z,92.60
2018-09-26T22:32:40.078Z,92.50
2018-09-26T22:35:07.762Z,92.40
2018-09-26T22:37:35.578Z,92.40
2018-09-26T22:40:03.313Z,92.60
2018-09-26T22:42:30.988Z,92.60
2018-09-26T22:44:58.648Z,93.00
2018-09-26T22:47:26.335Z,92.50
2018-09-26T22:49:54.086Z,92.60
2018-09-26T22:52:21.785Z,93.00
2018-09-26T22:54:49.478Z,92.90
2018-09-26T22:57:17.171Z,93.10
2018-09-26T22:59:44.842Z,93.40
2018-09-26T23:02:12.530Z,93.10
2018-09-26T23:04:40.204Z,93.20
2018-09-26T23:07:07.918Z,93.10
2018-09-26T23:09:35.637Z,92.80
2018-09-26T23:12:03.396Z,92.30
2018-09-26T23:14:31.125Z,92.20
2018-09-26T23:16:58.894Z,92.10
2018-09-26T23:19:26.566Z,91.90
2018-09-26T23:21:54.240Z,91.60
2018-09-26T23:24:21.919Z,92.10
2018-09-26T23:26:49.630Z,91.80
2018-09-26T23:29:17.305Z,92.00
2018-09-26T23:31:45.004Z,92.10
2018-09-26T23:34:12.704Z,92.30
2018-09-26T23:36:40.513Z,92.60
2018-09-26T23:39:09.149Z,92.70
2018-09-26T23:41:37.192Z,93.20
2018-09-26T23:44:04.869Z,93.20
2018-09-26T23:46:32.539Z,93.70
2018-09-26T23:49:00.227Z,93.80
2018-09-26T23:51:28.318Z,93.70
2018-09-26T23:53:57.116Z,93.60
2018-09-26T23:56:24.809Z,93.40
2018-09-26T23:58:52.494Z,93.40
